sensor_id;sensor_type;location;lat;lon;timestamp;temperature;humidity
25811;DHT22;13645;52.460;13.910;2023-11-19T00:01:06;4.20;99.90
25811;DHT22;13645;52.460;13.910;2023-11-19T00:03:33;4.20;99.90
25811;DHT22;13645;52.460;13.910;2023-11-19T00:06:00;4.30;99.90
25811;DHT22;13645;52.460;13.910;2023-11-19T00:08:27;4.30;99.90
25811;DHT22;13645;52.460;13.910;2023-11-19T00:10:54;4.20;99.90
25811;DHT22;13645;52.460;13.910;2023-11-19T00:13:20;4.20;99.90
25811;DHT22;13645;52.460;13.910;2023-11-19T00:15:47;4.20;99.90
25811;DHT22;13645;52.460;13.910;2023-11-19T00:18:14;4.20;99.90
25811;DHT22;13645;52.460;13.910;2023-11-19T00:20:41;4.20;99.90
25811;DHT22;13645;52.460;13.910;2023-11-19T00:23:11;4.20;99.90
25811;DHT22;13645;52.460;13.910;2023-11-19T00:25:37;4.30;99.90
25811;DHT22;13645;52.460;13.910;2023-11-19T00:28:05;4.20;99.90
25811;DHT22;13645;52.460;13.910;2023-11-19T00:30:31;4.20;99.90
25811;DHT22;13645;52.460;13.910;2023-11-19T00:32:58;4.20;99.90
25811;DHT22;13645;52.460;13.910;2023-11-19T00:35:25;4.20;99.90
25811;DHT22;13645;52.460;13.910;2023-11-19T00:37:52;4.30;99.90
25811;DHT22;13645;52.460;13.910;2023-11-19T00:40:20;4.20;99.90
25811;DHT22;13645;52.460;13.910;2023-11-19T00:42:49;4.20;99.90
25811;DHT22;13645;52.460;13.910;2023-11-19T00:45:16;4.20;99.90
25811;DHT22;13645;52.460;13.910;2023-11-19T00:47:43;4.10;99.90
25811;DHT22;13645;52.460;13.910;2023-11-19T00:50:10;4.20;99.90
25811;DHT22;13645;52.460;13.910;2023-11-19T00:52:37;4.20;99.90
25811;DHT22;13645;52.460;13.910;2023-11-19T00:55:04;4.20;99.90
25811;DHT22;13645;52.460;13.910;2023-11-19T00:57:31;4.30;99.90
25811;DHT22;13645;52.460;13.910;2023-11-19T00:59:59;4.30;87.50
25811;DHT22;13645;52.460;13.910;2023-11-19T01:02:26;4.20;96.20
25811;DHT22;13645;52.460;13.910;2023-11-19T01:04:52;4.30;89.20
25811;DHT22;13645;52.460;13.910;2023-11-19T01:07:19;4.20;45.00
25811;DHT22;13645;52.460;13.910;2023-11-19T01:09:48;4.20;99.90
25811;DHT22;13645;52.460;13.910;2023-11-19T01:12:15;4.30;67.40
25811;DHT22;13645;52.460;13.910;2023-11-19T01:14:41;4.30;99.10
25811;DHT22;13645;52.460;13.910;2023-11-19T01:17:08;4.30;77.50
25811;DHT22;13645;52.460;13.910;2023-11-19T01:19:35;4.30;24.40
25811;DHT22;13645;52.460;13.910;2023-11-19T01:22:02;4.30;34.80
25811;DHT22;13645;52.460;13.910;2023-11-19T01:24:29;4.20;40.60
25811;DHT22;13645;52.460;13.910;2023-11-19T01:26:57;4.20;81.00
25811;DHT22;13645;52.460;13.910;2023-11-19T01:29:26;4.20;69.30
25811;DHT22;13645;52.460;13.910;2023-11-19T01:31:53;4.20;71.80
25811;DHT22;13645;52.460;13.910;2023-11-19T01:34:19;4.20;70.50
25811;DHT22;13645;52.460;13.910;2023-11-19T01:36:46;4.20;41.50
25811;DHT22;13645;52.460;13.910;2023-11-19T01:39:13;4.30;52.20
25811;DHT22;13645;52.460;13.910;2023-11-19T01:41:44;4.30;39.10
25811;DHT22;13645;52.460;13.910;2023-11-19T01:44:11;4.20;28.00
25811;DHT22;13645;52.460;13.910;2023-11-19T01:46:40;4.30;26.50
25811;DHT22;13645;52.460;13.910;2023-11-19T01:49:08;4.30;1.00
25811;DHT22;13645;52.460;13.910;2023-11-19T01:51:35;4.30;1.00
25811;DHT22;13645;52.460;13.910;2023-11-19T01:54:02;4.40;1.00
25811;DHT22;13645;52.460;13.910;2023-11-19T01:56:28;4.30;1.00
25811;DHT22;13645;52.460;13.910;2023-11-19T01:58:57;4.30;1.00
25811;DHT22;13645;52.460;13.910;2023-11-19T02:01:23;4.30;1.00
25811;DHT22;13645;52.460;13.910;2023-11-19T02:03:51;4.30;10.50
25811;DHT22;13645;52.460;13.910;2023-11-19T02:06:18;4.30;1.00
25811;DHT22;13645;52.460;13.910;2023-11-19T02:08:45;4.30;3.80
25811;DHT22;13645;52.460;13.910;2023-11-19T02:11:12;4.30;1.00
25811;DHT22;13645;52.460;13.910;2023-11-19T02:13:39;4.40;1.00
25811;DHT22;13645;52.460;13.910;2023-11-19T02:16:07;4.40;1.00
25811;DHT22;13645;52.460;13.910;2023-11-19T02:18:37;4.40;1.00
25811;DHT22;13645;52.460;13.910;2023-11-19T02:21:04;4.40;1.00
25811;DHT22;13645;52.460;13.910;2023-11-19T02:23:32;4.50;1.00
25811;DHT22;13645;52.460;13.910;2023-11-19T02:28:25;4.50;1.00
25811;DHT22;13645;52.460;13.910;2023-11-19T02:30:52;4.50;1.00
25811;DHT22;13645;52.460;13.910;2023-11-19T02:33:19;4.50;1.00
25811;DHT22;13645;52.460;13.910;2023-11-19T02:35:46;4.50;1.00
25811;DHT22;13645;52.460;13.910;2023-11-19T02:38:13;4.60;1.00
25811;DHT22;13645;52.460;13.910;2023-11-19T02:40:40;4.60;1.00
25811;DHT22;13645;52.460;13.910;2023-11-19T02:43:07;4.50;1.00
25811;DHT22;13645;52.460;13.910;2023-11-19T02:45:35;4.50;1.00
25811;DHT22;13645;52.460;13.910;2023-11-19T02:48:02;4.50;1.00
25811;DHT22;13645;52.460;13.910;2023-11-19T02:50:29;4.50;1.00
25811;DHT22;13645;52.460;13.910;2023-11-19T02:52:56;4.50;50.20
25811;DHT22;13645;52.460;13.910;2023-11-19T02:55:23;4.50;18.10
25811;DHT22;13645;52.460;13.910;2023-11-19T02:57:51;4.40;77.80
25811;DHT22;13645;52.460;13.910;2023-11-19T03:00:20;4.40;99.90
25811;DHT22;13645;52.460;13.910;2023-11-19T03:02:51;4.30;99.90
25811;DHT22;13645;52.460;13.910;2023-11-19T03:05:32;4.40;99.90
25811;DHT22;13645;52.460;13.910;2023-11-19T03:07:58;4.40;99.90
25811;DHT22;13645;52.460;13.910;2023-11-19T03:10:25;4.40;99.90
25811;DHT22;13645;52.460;13.910;2023-11-19T03:12:52;4.40;99.90
25811;DHT22;13645;52.460;13.910;2023-11-19T03:15:18;4.40;99.90
25811;DHT22;13645;52.460;13.910;2023-11-19T03:17:45;4.40;99.90
25811;DHT22;13645;52.460;13.910;2023-11-19T03:20:12;4.50;99.90
25811;DHT22;13645;52.460;13.910;2023-11-19T03:22:43;4.50;99.90
25811;DHT22;13645;52.460;13.910;2023-11-19T03:25:10;4.50;99.90
25811;DHT22;13645;52.460;13.910;2023-11-19T03:27:37;4.50;99.90
25811;DHT22;13645;52.460;13.910;2023-11-19T03:30:05;4.50;99.90
25811;DHT22;13645;52.460;13.910;2023-11-19T03:32:32;4.60;99.90
25811;DHT22;13645;52.460;13.910;2023-11-19T03:35:04;4.60;99.90
25811;DHT22;13645;52.460;13.910;2023-11-19T03:37:33;4.60;99.90
25811;DHT22;13645;52.460;13.910;2023-11-19T03:40:00;4.60;99.90
25811;DHT22;13645;52.460;13.910;2023-11-19T03:42:29;4.60;99.90
25811;DHT22;13645;52.460;13.910;2023-11-19T03:44:56;4.70;99.90
25811;DHT22;13645;52.460;13.910;2023-11-19T03:47:23;4.70;99.90
25811;DHT22;13645;52.460;13.910;2023-11-19T03:49:51;4.60;99.90
25811;DHT22;13645;52.460;13.910;2023-11-19T03:52:18;4.70;99.90
25811;DHT22;13645;52.460;13.910;2023-11-19T03:54:46;4.80;99.90
25811;DHT22;13645;52.460;13.910;2023-11-19T03:57:13;4.70;90.10
25811;DHT22;13645;52.460;13.910;2023-11-19T03:59:40;4.80;99.90
25811;DHT22;13645;52.460;13.910;2023-11-19T04:02:06;4.80;89.60
25811;DHT22;13645;52.460;13.910;2023-11-19T04:04:33;4.80;97.80
25811;DHT22;13645;52.460;13.910;2023-11-19T04:07:00;4.90;70.50
25811;DHT22;13645;52.460;13.910;2023-11-19T04:09:27;5.00;1.00
25811;DHT22;13645;52.460;13.910;2023-11-19T04:11:54;5.10;1.00
25811;DHT22;13645;52.460;13.910;2023-11-19T04:14:20;5.10;1.00
25811;DHT22;13645;52.460;13.910;2023-11-19T04:16:47;5.10;1.00
25811;DHT22;13645;52.460;13.910;2023-11-19T04:19:14;5.10;1.00
25811;DHT22;13645;52.460;13.910;2023-11-19T04:21:41;5.10;1.00
25811;DHT22;13645;52.460;13.910;2023-11-19T04:24:08;5.10;69.40
25811;DHT22;13645;52.460;13.910;2023-11-19T04:26:35;5.00;99.90
25811;DHT22;13645;52.460;13.910;2023-11-19T04:29:03;5.10;99.90
25811;DHT22;13645;52.460;13.910;2023-11-19T04:31:29;5.00;99.90
25811;DHT22;13645;52.460;13.910;2023-11-19T04:33:59;4.90;99.90
25811;DHT22;13645;52.460;13.910;2023-11-19T04:36:27;4.90;99.90
25811;DHT22;13645;52.460;13.910;2023-11-19T04:38:53;4.90;99.90
25811;DHT22;13645;52.460;13.910;2023-11-19T04:41:22;4.80;99.90
25811;DHT22;13645;52.460;13.910;2023-11-19T04:43:49;4.80;99.90
25811;DHT22;13645;52.460;13.910;2023-11-19T04:46:16;4.80;99.90
25811;DHT22;13645;52.460;13.910;2023-11-19T04:48:43;4.80;99.90
25811;DHT22;13645;52.460;13.910;2023-11-19T04:51:10;4.80;99.90
25811;DHT22;13645;52.460;13.910;2023-11-19T04:53:36;4.80;99.90
25811;DHT22;13645;52.460;13.910;2023-11-19T04:56:10;4.70;99.90
25811;DHT22;13645;52.460;13.910;2023-11-19T04:58:37;4.70;99.90
25811;DHT22;13645;52.460;13.910;2023-11-19T05:01:04;4.70;99.90
25811;DHT22;13645;52.460;13.910;2023-11-19T05:03:31;4.70;99.90
25811;DHT22;13645;52.460;13.910;2023-11-19T05:05:58;4.70;99.90
25811;DHT22;13645;52.460;13.910;2023-11-19T05:08:25;4.60;99.90
25811;DHT22;13645;52.460;13.910;2023-11-19T05:10:52;4.60;99.90
25811;DHT22;13645;52.460;13.910;2023-11-19T05:13:19;4.60;99.90
25811;DHT22;13645;52.460;13.910;2023-11-19T05:15:45;4.60;99.90
25811;DHT22;13645;52.460;13.910;2023-11-19T05:18:12;4.60;99.90
25811;DHT22;13645;52.460;13.910;2023-11-19T05:20:39;4.50;99.90
25811;DHT22;13645;52.460;13.910;2023-11-19T05:23:05;4.60;99.90
25811;DHT22;13645;52.460;13.910;2023-11-19T05:25:32;4.60;99.90
25811;DHT22;13645;52.460;13.910;2023-11-19T05:27:58;4.60;99.90
25811;DHT22;13645;52.460;13.910;2023-11-19T05:30:25;4.70;99.90
25811;DHT22;13645;52.460;13.910;2023-11-19T05:32:52;4.60;99.90
25811;DHT22;13645;52.460;13.910;2023-11-19T05:35:19;4.60;99.90
25811;DHT22;13645;52.460;13.910;2023-11-19T05:37:45;4.70;99.90
25811;DHT22;13645;52.460;13.910;2023-11-19T05:40:12;4.60;99.90
25811;DHT22;13645;52.460;13.910;2023-11-19T05:42:42;4.60;99.90
25811;DHT22;13645;52.460;13.910;2023-11-19T05:45:10;4.70;99.90
25811;DHT22;13645;52.460;13.910;2023-11-19T05:47:38;4.70;99.90
25811;DHT22;13645;52.460;13.910;2023-11-19T05:50:05;4.80;99.90
25811;DHT22;13645;52.460;13.910;2023-11-19T05:52:32;4.80;99.90
25811;DHT22;13645;52.460;13.910;2023-11-19T05:55:00;4.70;99.90
25811;DHT22;13645;52.460;13.910;2023-11-19T05:57:30;4.70;99.90
25811;DHT22;13645;52.460;13.910;2023-11-19T05:59:57;4.70;99.90
25811;DHT22;13645;52.460;13.910;2023-11-19T06:02:25;4.70;99.90
25811;DHT22;13645;52.460;13.910;2023-11-19T06:04:53;4.70;99.90
25811;DHT22;13645;52.460;13.910;2023-11-19T06:07:20;4.70;99.90
25811;DHT22;13645;52.460;13.910;2023-11-19T06:09:47;4.60;99.90
25811;DHT22;13645;52.460;13.910;2023-11-19T06:12:13;4.60;99.90
25811;DHT22;13645;52.460;13.910;2023-11-19T06:14:40;4.70;99.90
25811;DHT22;13645;52.460;13.910;2023-11-19T06:17:07;4.60;99.90
25811;DHT22;13645;52.460;13.910;2023-11-19T06:19:35;4.60;99.90
25811;DHT22;13645;52.460;13.910;2023-11-19T06:22:02;4.60;99.90
25811;DHT22;13645;52.460;13.910;2023-11-19T06:24:28;4.60;99.90
25811;DHT22;13645;52.460;13.910;2023-11-19T06:26:55;4.70;99.90
25811;DHT22;13645;52.460;13.910;2023-11-19T06:29:22;4.60;99.90
25811;DHT22;13645;52.460;13.910;2023-11-19T06:31:48;4.70;99.90
25811;DHT22;13645;52.460;13.910;2023-11-19T06:34:15;4.70;99.90
25811;DHT22;13645;52.460;13.910;2023-11-19T06:36:42;4.70;99.90
25811;DHT22;13645;52.460;13.910;2023-11-19T06:39:12;4.70;99.90
25811;DHT22;13645;52.460;13.910;2023-11-19T06:41:38;4.70;99.90
25811;DHT22;13645;52.460;13.910;2023-11-19T06:44:05;4.70;99.90
25811;DHT22;13645;52.460;13.910;2023-11-19T06:46:32;4.70;99.90
25811;DHT22;13645;52.460;13.910;2023-11-19T06:48:59;4.70;99.90
25811;DHT22;13645;52.460;13.910;2023-11-19T06:51:26;4.70;99.90
25811;DHT22;13645;52.460;13.910;2023-11-19T06:53:53;4.70;99.90
25811;DHT22;13645;52.460;13.910;2023-11-19T06:56:23;4.80;99.90
25811;DHT22;13645;52.460;13.910;2023-11-19T06:58:50;4.70;99.90
25811;DHT22;13645;52.460;13.910;2023-11-19T07:01:17;4.80;99.90
25811;DHT22;13645;52.460;13.910;2023-11-19T07:03:45;4.70;99.90
25811;DHT22;13645;52.460;13.910;2023-11-19T07:06:13;4.80;99.90
25811;DHT22;13645;52.460;13.910;2023-11-19T07:08:43;4.70;99.90
25811;DHT22;13645;52.460;13.910;2023-11-19T07:11:13;4.80;99.90
25811;DHT22;13645;52.460;13.910;2023-11-19T07:13:43;4.80;99.90
25811;DHT22;13645;52.460;13.910;2023-11-19T07:16:13;4.80;99.90
25811;DHT22;13645;52.460;13.910;2023-11-19T07:18:40;4.90;99.90
25811;DHT22;13645;52.460;13.910;2023-11-19T07:21:08;4.80;99.90
25811;DHT22;13645;52.460;13.910;2023-11-19T07:23:37;4.90;99.90
25811;DHT22;13645;52.460;13.910;2023-11-19T07:26:06;4.80;99.90
25811;DHT22;13645;52.460;13.910;2023-11-19T07:28:36;4.90;99.90
25811;DHT22;13645;52.460;13.910;2023-11-19T07:31:03;4.90;99.90
25811;DHT22;13645;52.460;13.910;2023-11-19T07:33:30;4.90;99.90
25811;DHT22;13645;52.460;13.910;2023-11-19T07:35:56;4.90;99.90
25811;DHT22;13645;52.460;13.910;2023-11-19T07:38:23;4.90;99.90
25811;DHT22;13645;52.460;13.910;2023-11-19T07:40:50;5.00;99.90
25811;DHT22;13645;52.460;13.910;2023-11-19T07:43:19;5.00;99.90
25811;DHT22;13645;52.460;13.910;2023-11-19T07:45:46;4.90;99.90
25811;DHT22;13645;52.460;13.910;2023-11-19T07:48:13;5.00;99.90
25811;DHT22;13645;52.460;13.910;2023-11-19T07:50:40;5.00;99.90
25811;DHT22;13645;52.460;13.910;2023-11-19T07:53:09;5.00;99.90
25811;DHT22;13645;52.460;13.910;2023-11-19T07:55:36;5.00;99.90
25811;DHT22;13645;52.460;13.910;2023-11-19T07:58:07;5.00;99.90
25811;DHT22;13645;52.460;13.910;2023-11-19T08:00:34;5.10;99.90
25811;DHT22;13645;52.460;13.910;2023-11-19T08:03:08;5.10;99.90
25811;DHT22;13645;52.460;13.910;2023-11-19T08:05:35;5.10;99.90
25811;DHT22;13645;52.460;13.910;2023-11-19T08:08:02;5.10;99.90
25811;DHT22;13645;52.460;13.910;2023-11-19T08:10:29;5.10;99.90
25811;DHT22;13645;52.460;13.910;2023-11-19T08:12:55;5.20;99.90
25811;DHT22;13645;52.460;13.910;2023-11-19T08:15:22;5.20;99.90
25811;DHT22;13645;52.460;13.910;2023-11-19T08:17:52;5.10;99.90
25811;DHT22;13645;52.460;13.910;2023-11-19T08:20:18;5.20;99.90
25811;DHT22;13645;52.460;13.910;2023-11-19T08:22:45;5.20;99.90
25811;DHT22;13645;52.460;13.910;2023-11-19T08:25:12;5.30;99.90
25811;DHT22;13645;52.460;13.910;2023-11-19T08:27:39;5.20;99.90
25811;DHT22;13645;52.460;13.910;2023-11-19T08:30:06;5.30;99.90
25811;DHT22;13645;52.460;13.910;2023-11-19T08:32:36;5.20;99.90
25811;DHT22;13645;52.460;13.910;2023-11-19T08:35:03;5.30;99.90
25811;DHT22;13645;52.460;13.910;2023-11-19T08:37:29;5.30;99.90
25811;DHT22;13645;52.460;13.910;2023-11-19T08:39:56;5.30;99.90
25811;DHT22;13645;52.460;13.910;2023-11-19T08:42:23;5.30;99.90
25811;DHT22;13645;52.460;13.910;2023-11-19T08:44:49;5.30;99.90
25811;DHT22;13645;52.460;13.910;2023-11-19T08:47:17;5.30;99.90
25811;DHT22;13645;52.460;13.910;2023-11-19T08:49:46;5.40;99.90
25811;DHT22;13645;52.460;13.910;2023-11-19T08:52:30;5.50;99.90
25811;DHT22;13645;52.460;13.910;2023-11-19T08:55:00;5.50;99.90
25811;DHT22;13645;52.460;13.910;2023-11-19T08:57:27;5.50;99.90
25811;DHT22;13645;52.460;13.910;2023-11-19T08:59:54;5.50;99.90
25811;DHT22;13645;52.460;13.910;2023-11-19T09:02:20;5.50;99.90
25811;DHT22;13645;52.460;13.910;2023-11-19T09:04:47;5.70;99.90
25811;DHT22;13645;52.460;13.910;2023-11-19T09:07:17;5.70;99.90
25811;DHT22;13645;52.460;13.910;2023-11-19T09:09:43;5.80;99.90
25811;DHT22;13645;52.460;13.910;2023-11-19T09:12:10;5.80;99.90
25811;DHT22;13645;52.460;13.910;2023-11-19T09:14:37;5.80;99.90
25811;DHT22;13645;52.460;13.910;2023-11-19T09:17:03;5.90;99.90
25811;DHT22;13645;52.460;13.910;2023-11-19T09:19:32;5.80;99.90
25811;DHT22;13645;52.460;13.910;2023-11-19T09:21:58;5.80;99.90
25811;DHT22;13645;52.460;13.910;2023-11-19T09:24:25;6.00;99.90
25811;DHT22;13645;52.460;13.910;2023-11-19T09:26:52;6.00;99.90
25811;DHT22;13645;52.460;13.910;2023-11-19T09:29:18;6.10;99.90
25811;DHT22;13645;52.460;13.910;2023-11-19T09:31:46;6.10;99.90
25811;DHT22;13645;52.460;13.910;2023-11-19T09:34:12;6.10;99.90
25811;DHT22;13645;52.460;13.910;2023-11-19T09:36:42;6.20;99.90
25811;DHT22;13645;52.460;13.910;2023-11-19T09:39:11;6.30;99.90
25811;DHT22;13645;52.460;13.910;2023-11-19T09:41:39;6.30;99.90
25811;DHT22;13645;52.460;13.910;2023-11-19T09:44:06;6.30;99.90
25811;DHT22;13645;52.460;13.910;2023-11-19T09:46:33;6.40;99.90
25811;DHT22;13645;52.460;13.910;2023-11-19T09:48:59;6.40;99.90
25811;DHT22;13645;52.460;13.910;2023-11-19T09:51:27;6.40;99.90
25811;DHT22;13645;52.460;13.910;2023-11-19T09:53:54;6.40;99.90
25811;DHT22;13645;52.460;13.910;2023-11-19T09:56:20;6.40;99.90
25811;DHT22;13645;52.460;13.910;2023-11-19T09:58:48;6.50;99.90
25811;DHT22;13645;52.460;13.910;2023-11-19T10:01:15;6.50;99.90
25811;DHT22;13645;52.460;13.910;2023-11-19T10:03:54;6.50;99.90
25811;DHT22;13645;52.460;13.910;2023-11-19T10:06:22;6.70;99.90
25811;DHT22;13645;52.460;13.910;2023-11-19T10:08:49;6.80;99.90
25811;DHT22;13645;52.460;13.910;2023-11-19T10:11:16;6.90;99.90
25811;DHT22;13645;52.460;13.910;2023-11-19T10:13:43;7.00;99.90
25811;DHT22;13645;52.460;13.910;2023-11-19T10:16:14;7.10;99.90
25811;DHT22;13645;52.460;13.910;2023-11-19T10:18:48;7.20;99.90
25811;DHT22;13645;52.460;13.910;2023-11-19T10:21:19;7.20;99.90
25811;DHT22;13645;52.460;13.910;2023-11-19T10:23:47;7.30;99.90
25811;DHT22;13645;52.460;13.910;2023-11-19T10:26:14;7.50;99.90
25811;DHT22;13645;52.460;13.910;2023-11-19T10:28:40;7.60;99.90
25811;DHT22;13645;52.460;13.910;2023-11-19T10:31:10;7.80;99.90
25811;DHT22;13645;52.460;13.910;2023-11-19T10:33:37;7.90;99.90
25811;DHT22;13645;52.460;13.910;2023-11-19T10:36:04;8.00;99.90
25811;DHT22;13645;52.460;13.910;2023-11-19T10:38:31;7.90;99.90
25811;DHT22;13645;52.460;13.910;2023-11-19T10:40:57;7.90;99.90
25811;DHT22;13645;52.460;13.910;2023-11-19T10:43:25;8.00;99.90
25811;DHT22;13645;52.460;13.910;2023-11-19T10:45:52;8.20;99.90
25811;DHT22;13645;52.460;13.910;2023-11-19T10:48:19;8.30;99.90
25811;DHT22;13645;52.460;13.910;2023-11-19T10:50:46;8.40;99.90
25811;DHT22;13645;52.460;13.910;2023-11-19T10:53:16;8.60;99.90
25811;DHT22;13645;52.460;13.910;2023-11-19T10:55:45;8.80;99.90
25811;DHT22;13645;52.460;13.910;2023-11-19T10:58:15;8.80;99.90
25811;DHT22;13645;52.460;13.910;2023-11-19T11:00:54;8.80;99.90
25811;DHT22;13645;52.460;13.910;2023-11-19T11:03:24;8.80;99.90
25811;DHT22;13645;52.460;13.910;2023-11-19T11:05:52;8.90;99.90
25811;DHT22;13645;52.460;13.910;2023-11-19T11:08:19;9.00;99.90
25811;DHT22;13645;52.460;13.910;2023-11-19T11:10:53;9.20;99.90
25811;DHT22;13645;52.460;13.910;2023-11-19T11:13:24;9.50;99.90
25811;DHT22;13645;52.460;13.910;2023-11-19T11:15:51;9.80;99.90
25811;DHT22;13645;52.460;13.910;2023-11-19T11:18:20;10.10;99.90
25811;DHT22;13645;52.460;13.910;2023-11-19T11:20:47;10.30;99.90
25811;DHT22;13645;52.460;13.910;2023-11-19T11:28:36;10.70;99.90
25811;DHT22;13645;52.460;13.910;2023-11-19T11:34:41;10.90;99.90
25811;DHT22;13645;52.460;13.910;2023-11-19T11:36:36;11.00;99.90
25811;DHT22;13645;52.460;13.910;2023-11-19T11:39:04;11.20;99.90
25811;DHT22;13645;52.460;13.910;2023-11-19T11:41:34;11.40;99.90
25811;DHT22;13645;52.460;13.910;2023-11-19T11:44:01;11.50;99.90
25811;DHT22;13645;52.460;13.910;2023-11-19T11:49:02;11.70;99.90
25811;DHT22;13645;52.460;13.910;2023-11-19T11:54:11;12.10;99.90
25811;DHT22;13645;52.460;13.910;2023-11-19T11:57:08;11.90;99.90
25811;DHT22;13645;52.460;13.910;2023-11-19T12:02:08;11.50;99.90
25811;DHT22;13645;52.460;13.910;2023-11-19T12:04:35;11.50;99.90
25811;DHT22;13645;52.460;13.910;2023-11-19T12:07:06;11.80;99.90
25811;DHT22;13645;52.460;13.910;2023-11-19T12:09:33;12.10;99.90
25811;DHT22;13645;52.460;13.910;2023-11-19T12:14:59;12.80;99.90
25811;DHT22;13645;52.460;13.910;2023-11-19T12:19:59;13.30;99.90
25811;DHT22;13645;52.460;13.910;2023-11-19T12:22:27;13.40;99.90
25811;DHT22;13645;52.460;13.910;2023-11-19T12:24:54;13.60;99.90
25811;DHT22;13645;52.460;13.910;2023-11-19T12:27:21;13.60;99.90
25811;DHT22;13645;52.460;13.910;2023-11-19T12:29:52;13.50;99.90
25811;DHT22;13645;52.460;13.910;2023-11-19T12:32:19;13.40;99.90
25811;DHT22;13645;52.460;13.910;2023-11-19T12:34:46;13.00;99.90
25811;DHT22;13645;52.460;13.910;2023-11-19T12:37:12;12.70;99.90
25811;DHT22;13645;52.460;13.910;2023-11-19T12:39:39;12.50;99.90
25811;DHT22;13645;52.460;13.910;2023-11-19T12:42:07;12.20;99.90
25811;DHT22;13645;52.460;13.910;2023-11-19T12:44:33;12.00;99.90
25811;DHT22;13645;52.460;13.910;2023-11-19T12:49:30;11.80;99.90
25811;DHT22;13645;52.460;13.910;2023-11-19T12:51:57;11.80;99.90
25811;DHT22;13645;52.460;13.910;2023-11-19T12:54:34;11.80;99.90
25811;DHT22;13645;52.460;13.910;2023-11-19T12:57:01;11.70;99.90
25811;DHT22;13645;52.460;13.910;2023-11-19T12:59:28;11.60;99.90
25811;DHT22;13645;52.460;13.910;2023-11-19T13:01:58;11.70;99.90
25811;DHT22;13645;52.460;13.910;2023-11-19T13:04:31;11.60;99.90
25811;DHT22;13645;52.460;13.910;2023-11-19T13:07:00;11.50;99.90
25811;DHT22;13645;52.460;13.910;2023-11-19T13:09:31;11.50;99.90
25811;DHT22;13645;52.460;13.910;2023-11-19T13:11:59;11.50;99.90
25811;DHT22;13645;52.460;13.910;2023-11-19T13:14:37;11.50;99.90
25811;DHT22;13645;52.460;13.910;2023-11-19T13:17:08;11.40;99.90
25811;DHT22;13645;52.460;13.910;2023-11-19T13:19:35;11.40;99.90
25811;DHT22;13645;52.460;13.910;2023-11-19T13:22:01;11.40;99.90
25811;DHT22;13645;52.460;13.910;2023-11-19T13:24:28;11.40;99.90
25811;DHT22;13645;52.460;13.910;2023-11-19T13:26:55;11.40;99.90
25811;DHT22;13645;52.460;13.910;2023-11-19T13:29:22;11.30;99.90
25811;DHT22;13645;52.460;13.910;2023-11-19T13:31:49;11.30;99.90
25811;DHT22;13645;52.460;13.910;2023-11-19T13:34:16;11.20;99.90
25811;DHT22;13645;52.460;13.910;2023-11-19T13:36:42;11.20;99.90
25811;DHT22;13645;52.460;13.910;2023-11-19T13:39:09;11.20;99.90
25811;DHT22;13645;52.460;13.910;2023-11-19T13:41:37;11.40;99.90
25811;DHT22;13645;52.460;13.910;2023-11-19T13:44:03;11.60;99.90
25811;DHT22;13645;52.460;13.910;2023-11-19T13:46:30;11.80;99.90
25811;DHT22;13645;52.460;13.910;2023-11-19T13:48:57;11.90;99.90
25811;DHT22;13645;52.460;13.910;2023-11-19T13:51:24;12.00;99.90
25811;DHT22;13645;52.460;13.910;2023-11-19T13:53:50;12.00;99.90
25811;DHT22;13645;52.460;13.910;2023-11-19T13:56:18;12.00;99.90
25811;DHT22;13645;52.460;13.910;2023-11-19T13:58:45;11.90;99.90
25811;DHT22;13645;52.460;13.910;2023-11-19T14:01:11;11.90;99.90
25811;DHT22;13645;52.460;13.910;2023-11-19T14:03:39;11.80;99.90
25811;DHT22;13645;52.460;13.910;2023-11-19T14:06:07;11.60;99.90
25811;DHT22;13645;52.460;13.910;2023-11-19T14:08:35;11.60;99.90
25811;DHT22;13645;52.460;13.910;2023-11-19T14:11:01;11.50;99.90
25811;DHT22;13645;52.460;13.910;2023-11-19T14:13:28;11.40;99.90
25811;DHT22;13645;52.460;13.910;2023-11-19T14:15:55;11.40;99.90
25811;DHT22;13645;52.460;13.910;2023-11-19T14:18:22;11.30;99.90
25811;DHT22;13645;52.460;13.910;2023-11-19T14:20:49;11.30;99.90
25811;DHT22;13645;52.460;13.910;2023-11-19T14:23:16;11.20;99.90
25811;DHT22;13645;52.460;13.910;2023-11-19T14:25:42;11.20;99.90
25811;DHT22;13645;52.460;13.910;2023-11-19T14:28:09;11.10;99.90
25811;DHT22;13645;52.460;13.910;2023-11-19T14:30:36;11.10;99.90
25811;DHT22;13645;52.460;13.910;2023-11-19T14:33:03;11.10;99.90
25811;DHT22;13645;52.460;13.910;2023-11-19T14:35:30;11.10;99.90
25811;DHT22;13645;52.460;13.910;2023-11-19T14:37:57;11.10;99.90
25811;DHT22;13645;52.460;13.910;2023-11-19T14:40:24;11.00;99.90
25811;DHT22;13645;52.460;13.910;2023-11-19T14:43:08;11.00;99.90
25811;DHT22;13645;52.460;13.910;2023-11-19T14:45:38;11.00;99.90
25811;DHT22;13645;52.460;13.910;2023-11-19T14:48:15;11.00;99.90
25811;DHT22;13645;52.460;13.910;2023-11-19T14:50:41;11.00;99.90
25811;DHT22;13645;52.460;13.910;2023-11-19T14:53:08;11.00;99.90
25811;DHT22;13645;52.460;13.910;2023-11-19T14:55:35;10.90;99.90
25811;DHT22;13645;52.460;13.910;2023-11-19T14:58:01;10.90;99.90
25811;DHT22;13645;52.460;13.910;2023-11-19T15:00:35;10.90;99.90
25811;DHT22;13645;52.460;13.910;2023-11-19T15:03:02;10.90;99.90
25811;DHT22;13645;52.460;13.910;2023-11-19T15:05:29;10.80;99.90
25811;DHT22;13645;52.460;13.910;2023-11-19T15:07:56;10.80;99.90
25811;DHT22;13645;52.460;13.910;2023-11-19T15:10:22;10.90;99.90
25811;DHT22;13645;52.460;13.910;2023-11-19T15:12:51;10.90;99.90
25811;DHT22;13645;52.460;13.910;2023-11-19T15:15:19;10.90;99.90
25811;DHT22;13645;52.460;13.910;2023-11-19T15:18:02;10.80;99.90
25811;DHT22;13645;52.460;13.910;2023-11-19T15:20:28;10.90;99.90
25811;DHT22;13645;52.460;13.910;2023-11-19T15:22:59;10.90;99.90
25811;DHT22;13645;52.460;13.910;2023-11-19T15:25:25;10.90;99.90
25811;DHT22;13645;52.460;13.910;2023-11-19T15:27:52;10.90;99.90
25811;DHT22;13645;52.460;13.910;2023-11-19T15:30:19;10.90;99.90
25811;DHT22;13645;52.460;13.910;2023-11-19T15:32:45;10.90;99.90
25811;DHT22;13645;52.460;13.910;2023-11-19T15:35:12;11.00;99.90
25811;DHT22;13645;52.460;13.910;2023-11-19T15:37:40;10.90;99.90
25811;DHT22;13645;52.460;13.910;2023-11-19T15:40:10;10.90;99.90
25811;DHT22;13645;52.460;13.910;2023-11-19T15:42:39;10.90;99.90
25811;DHT22;13645;52.460;13.910;2023-11-19T15:45:12;10.80;99.90
25811;DHT22;13645;52.460;13.910;2023-11-19T15:47:39;10.70;99.90
25811;DHT22;13645;52.460;13.910;2023-11-19T15:50:06;10.80;99.90
25811;DHT22;13645;52.460;13.910;2023-11-19T15:52:37;10.70;99.90
25811;DHT22;13645;52.460;13.910;2023-11-19T15:55:05;10.70;99.90
25811;DHT22;13645;52.460;13.910;2023-11-19T15:57:31;10.70;99.90